< Typhoon 196509 1965 Season Typhoon 196511 >
Typhoon 196510 (EMMA)
General InformationTrack Information on Google Maps || Disaster Info.ResourceGoogle EarthGE AnimationAtom FeedGeoJSON
Detalied Best Track (Time Zone = UTC)
Year Month Day Hour Lat. Long. Pressure (hPa) Wind (kt) Class Image Chart
1965 6 19 06 9.0 139.0 1006 0 2 -- Chart
1965 6 19 12 9.9 139.0 1006 0 2 -- Chart
1965 6 19 18 10.8 138.2 1006 0 2 -- Chart
1965 6 20 00 11.7 137.3 1006 0 2 -- Chart
1965 6 20 06 11.7 136.1 1004 0 2 -- Chart
1965 6 20 12 11.8 134.6 1006 0 2 -- Chart
1965 6 20 18 11.9 133.1 1004 0 2 -- Chart
1965 6 21 00 12.0 131.5 1004 0 2 -- Chart
1965 6 21 06 12.6 130.5 1002 0 2 -- Chart
1965 6 21 12 13.2 129.7 1002 0 2 -- Chart
1965 6 21 18 13.6 129.0 1002 0 2 -- Chart
1965 6 22 00 14.1 128.2 1002 0 2 -- Chart
1965 6 22 06 14.5 127.5 1002 0 2 -- Chart
1965 6 22 12 14.9 126.8 1002 0 2 -- Chart
1965 6 22 18 15.3 126.1 1002 0 2 -- Chart
1965 6 23 00 15.5 125.5 1002 0 2 -- Chart
1965 6 23 06 15.7 124.7 1002 0 2 -- Chart
1965 6 23 12 16.2 124.2 998 0 9 -- Chart
1965 6 23 18 16.8 124.1 998 0 9 -- Chart
1965 6 24 00 17.7 124.2 996 0 9 -- Chart
1965 6 24 06 19.1 124.6 996 0 9 -- Chart
1965 6 24 12 20.4 124.5 998 0 9 -- Chart
1965 6 24 18 21.3 124.5 998 0 9 -- Chart
1965 6 25 00 22.2 124.5 996 0 9 -- Chart
1965 6 25 06 23.3 124.5 996 0 9 -- Chart
1965 6 25 12 24.5 124.9 999 0 2 -- Chart
1965 6 25 18 26.3 126.9 998 0 2 -- Chart
1965 6 26 00 28.5 127.5 998 0 2 -- Chart
1965 6 26 06 30.9 130.9 998 0 2 -- Chart
1965 6 26 12 33.5 134.5 998 0 2 -- Chart
1965 6 26 18 35.0 139.0 993 0 6 -- Chart
1965 6 27 00 36.7 142.0 994 0 6 -- Chart
1965 6 27 06 37.6 144.0 998 0 6 -- Chart
1965 6 27 12 37.9 148.0 998 0 6 -- Chart
1965 6 27 18 38.5 151.0 998 0 6 -- Chart
1965 6 28 00 39.0 153.2 998 0 6 -- Chart
1965 6 28 06 39.0 155.0 1000 0 6 -- Chart
1965 6 28 12 39.1 157.0 1000 0 6 -- Chart
1965 6 28 18 39.5 160.0 1000 0 6 -- Chart
1965 6 29 00 40.0 162.8 1000 0 6 -- Chart
1965 6 29 06 40.0 166.0 1000 0 6 -- Chart
1965 6 29 12 41.0 169.0 1000 0 6 -- Chart
1965 6 29 18 41.5 172.0 1002 0 6 -- Chart
1965 6 30 00 42.7 174.0 1002 0 6 -- Chart
1965 6 30 06 44.2 176.2 1002 0 6 -- Chart
1965 6 30 12 45.0 182.0 1000 0 6 -- Chart
Japan Meteorological Agency Best Track Data | Correction Date : 1991-07-16
< Typhoon 196509 1965 Season Typhoon 196511 >

Help